Time;durP1;ratioP1;P1;durP2;ratioP2;P2;SDS_P1;SDS_P2;PMS_P1;PMS_P2;Temp;Humidity;BMP_temperature;BMP_pressure;BME280_temperature;BME280_humidity;BME280_pressure;Samples;Min_cycle;Max_cycle;Signal;HPM_P1;HPM_P2
2023/08/25 00:06:13;;;;;;;13;9.7;;;;;;;16.03;85.32;;;;;
2023/08/25 00:16:13;;;;;;;12.6;8.6;;;;;;;15.96;85.5;;;;;
2023/08/25 00:27:13;;;;;;;12.6;8.6;;;;;;;15.91;85.76;;;;;
2023/08/25 00:37:13;;;;;;;12.6;8.6;;;;;;;15.82;85.77;;;;;
2023/08/25 00:48:13;;;;;;;14.6;8.8;;;;;;;15.71;85.7;;;;;
2023/08/25 00:59:13;;;;;;;14.6;8.8;;;;;;;15.59;86.62;;;;;
2023/08/25 01:10:13;;;;;;;15.5;9.9;;;;;;;15.46;87.83;;;;;
2023/08/25 01:21:13;;;;;;;15.5;9.9;;;;;;;15.45;87.01;;;;;
2023/08/25 01:31:13;;;;;;;15.5;9.9;;;;;;;15.38;86.46;;;;;
2023/08/25 01:41:14;;;;;;;12.1;10.4;;;;;;;15.3;87.03;;;;;
2023/08/25 01:52:13;;;;;;;12.1;10.4;;;;;;;15.24;87.56;;;;;
2023/08/25 02:02:13;;;;;;;12.1;10.4;;;;;;;15.16;87.22;;;;;
2023/08/25 02:12:14;;;;;;;16.1;13.2;;;;;;;15.14;87.09;;;;;
2023/08/25 02:23:13;;;;;;;16.1;13.2;;;;;;;15.11;87.97;;;;;
2023/08/25 02:34:13;;;;;;;16.1;13.2;;;;;;;15.06;88.17;;;;;
2023/08/25 02:45:13;;;;;;;19.4;13.9;;;;;;;14.97;88.22;;;;;
2023/08/25 02:56:13;;;;;;;19.4;13.9;;;;;;;15.01;89.01;;;;;
2023/08/25 03:07:13;;;;;;;19.4;13.9;;;;;;;15;88.51;;;;;
2023/08/25 03:18:13;;;;;;;19.3;13.2;;;;;;;14.82;88.36;;;;;
2023/08/25 03:28:13;;;;;;;19.3;13.2;;;;;;;14.9;88.06;;;;;
2023/08/25 03:39:13;;;;;;;19.3;13.2;;;;;;;14.89;88.14;;;;;
2023/08/25 03:50:13;;;;;;;17;12.5;;;;;;;14.84;89.37;;;;;
2023/08/25 04:01:13;;;;;;;17;12.5;;;;;;;14.98;88.89;;;;;
2023/08/25 04:11:13;;;;;;;16.9;12.9;;;;;;;15.13;88.75;;;;;
2023/08/25 04:21:14;;;;;;;16.9;12.9;;;;;;;15.49;89.34;;;;;
2023/08/25 04:32:14;;;;;;;16.9;12.9;;;;;;;15.78;89.64;;;;;
2023/08/25 04:42:13;;;;;;;16;12.9;;;;;;;16.21;89.09;;;;;
2023/08/25 04:53:13;;;;;;;16;12.9;;;;;;;16.65;88.12;;;;;
2023/08/25 05:03:13;;;;;;;16;12.9;;;;;;;17.34;87.51;;;;;
2023/08/25 05:14:13;;;;;;;16.4;12.1;;;;;;;17.92;85.41;;;;;
2023/08/25 05:25:14;;;;;;;16.4;12.1;;;;;;;18.51;84.02;;;;;
2023/08/25 05:36:13;;;;;;;16.4;12.1;;;;;;;19.3;82;;;;;
2023/08/25 05:46:13;;;;;;;14.1;9.9;;;;;;;19.81;79.54;;;;;
2023/08/25 05:57:13;;;;;;;14.1;9.9;;;;;;;20.05;79.31;;;;;
2023/08/25 06:08:14;;;;;;;14.1;9.9;;;;;;;19.97;81.82;;;;;
2023/08/25 06:18:13;;;;;;;14.2;8.6;;;;;;;20.7;80.31;;;;;
2023/08/25 06:28:13;;;;;;;14.2;8.6;;;;;;;21.18;78.78;;;;;
2023/08/25 06:38:14;;;;;;;14.2;8.6;;;;;;;21.38;77.7;;;;;
2023/08/25 06:49:13;;;;;;;10.8;7.5;;;;;;;21.97;77.73;;;;;
2023/08/25 07:00:13;;;;;;;10.8;7.5;;;;;;;22.47;75.13;;;;;
2023/08/25 07:11:13;;;;;;;12.9;7.8;;;;;;;23.14;74.67;;;;;
2023/08/25 07:21:13;;;;;;;12.9;7.8;;;;;;;24.03;72.73;;;;;
2023/08/25 07:32:13;;;;;;;12.9;7.8;;;;;;;25.21;69.35;;;;;
2023/08/25 07:42:13;;;;;;;11.4;7.4;;;;;;;25.24;66.87;;;;;
2023/08/25 07:53:13;;;;;;;11.4;7.4;;;;;;;25.05;66.98;;;;;
2023/08/25 08:03:15;;;;;;;11.4;7.4;;;;;;;24.93;67;;;;;
2023/08/25 08:14:13;;;;;;;11.6;8.1;;;;;;;24.7;68.2;;;;;
2023/08/25 08:25:14;;;;;;;11.6;8.1;;;;;;;24.82;69.17;;;;;
2023/08/25 08:36:15;;;;;;;11.6;8.1;;;;;;;25.16;67.83;;;;;
2023/08/25 08:46:13;;;;;;;18.8;10.6;;;;;;;25.16;69.15;;;;;
2023/08/25 08:56:13;;;;;;;18.8;10.6;;;;;;;25.31;70.66;;;;;
2023/08/25 09:06:13;;;;;;;18.8;10.6;;;;;;;25.58;68.94;;;;;
2023/08/25 09:17:13;;;;;;;15.2;9.4;;;;;;;26.12;67.99;;;;;
2023/08/25 09:27:13;;;;;;;15.2;9.4;;;;;;;26.68;64.63;;;;;
2023/08/25 09:37:13;;;;;;;15.2;9.4;;;;;;;27.18;62;;;;;
2023/08/25 09:48:13;;;;;;;9.2;6.1;;;;;;;27.47;60.16;;;;;
2023/08/25 09:58:13;;;;;;;9.2;6.1;;;;;;;27.2;61.91;;;;;
2023/08/25 10:08:14;;;;;;;9.2;6.1;;;;;;;27.41;62.34;;;;;
2023/08/25 10:18:14;;;;;;;9.8;6.6;;;;;;;27.78;60.81;;;;;
2023/08/25 10:29:13;;;;;;;9.8;6.6;;;;;;;28;59.28;;;;;
2023/08/25 10:39:13;;;;;;;9.8;6.6;;;;;;;28.15;59.33;;;;;
2023/08/25 10:49:13;;;;;;;9.2;6.3;;;;;;;28.48;59.71;;;;;
2023/08/25 11:00:13;;;;;;;9.2;6.3;;;;;;;29.13;57.77;;;;;
2023/08/25 11:11:13;;;;;;;10.1;6.3;;;;;;;29.72;54.53;;;;;
2023/08/25 11:21:14;;;;;;;10.1;6.3;;;;;;;29.23;55.4;;;;;
2023/08/25 11:31:13;;;;;;;10.1;6.3;;;;;;;29.41;58.16;;;;;
2023/08/25 11:42:13;;;;;;;13.1;7.7;;;;;;;29.61;57.82;;;;;
2023/08/25 11:52:14;;;;;;;13.1;7.7;;;;;;;29.8;53.68;;;;;
2023/08/25 12:02:13;;;;;;;13.1;7.7;;;;;;;30.07;54.36;;;;;
2023/08/25 12:13:13;;;;;;;11.6;6.6;;;;;;;30.22;52.49;;;;;
2023/08/25 12:23:13;;;;;;;11.6;6.6;;;;;;;30.36;54.51;;;;;
2023/08/25 12:34:13;;;;;;;11.6;6.6;;;;;;;30.69;53.78;;;;;
2023/08/25 12:44:13;;;;;;;11.5;6.9;;;;;;;30.71;52.28;;;;;
2023/08/25 12:55:14;;;;;;;11.5;6.9;;;;;;;30.91;51.56;;;;;
2023/08/25 13:05:13;;;;;;;11.5;6.9;;;;;;;30.87;51.86;;;;;
2023/08/25 13:15:14;;;;;;;10.7;7.9;;;;;;;31.03;52.49;;;;;
2023/08/25 13:26:13;;;;;;;10.7;7.9;;;;;;;31.12;51.08;;;;;
2023/08/25 13:37:13;;;;;;;10.7;7.9;;;;;;;31.01;52.18;;;;;
2023/08/25 13:47:13;;;;;;;11.8;7.2;;;;;;;31.15;50.87;;;;;
2023/08/25 13:58:13;;;;;;;11.8;7.2;;;;;;;31.32;50.27;;;;;
2023/08/25 14:09:13;;;;;;;11.8;7.2;;;;;;;31.53;51.06;;;;;
2023/08/25 14:19:13;;;;;;;12.6;8.1;;;;;;;31.97;52.13;;;;;
2023/08/25 14:29:13;;;;;;;12.6;8.1;;;;;;;32.19;50.28;;;;;
2023/08/25 14:39:14;;;;;;;12.6;8.1;;;;;;;31.44;50.24;;;;;
2023/08/25 14:50:13;;;;;;;13.1;7.6;;;;;;;32.33;49.1;;;;;
2023/08/25 15:00:13;;;;;;;13.1;7.6;;;;;;;32.07;49.58;;;;;
2023/08/25 15:11:13;;;;;;;9.8;6.5;;;;;;;32.44;50.95;;;;;
2023/08/25 15:21:13;;;;;;;9.8;6.5;;;;;;;33.91;48.2;;;;;
2023/08/25 15:31:14;;;;;;;9.8;6.5;;;;;;;34.92;44.84;;;;;
2023/08/25 15:42:14;;;;;;;10.9;6.2;;;;;;;35.6;43.25;;;;;
2023/08/25 15:52:13;;;;;;;10.9;6.2;;;;;;;35.35;44.48;;;;;
2023/08/25 16:02:17;;;;;;;10.9;6.2;;;;;;;35.9;44.19;;;;;
2023/08/25 16:12:18;;;;;;;8.8;5.2;;;;;;;36.64;42.57;;;;;
2023/08/25 16:22:17;;;;;;;8.8;5.2;;;;;;;35.25;44.61;;;;;
2023/08/25 16:33:18;;;;;;;8.8;5.2;;;;;;;33.66;48.54;;;;;
2023/08/25 16:44:17;;;;;;;10.9;5.8;;;;;;;31.92;52.16;;;;;
2023/08/25 16:54:17;;;;;;;10.9;5.8;;;;;;;30.56;55.53;;;;;
2023/08/25 17:04:17;;;;;;;10.9;5.8;;;;;;;29.51;58.5;;;;;
2023/08/25 17:15:17;;;;;;;10.7;6.8;;;;;;;28.56;61.32;;;;;
2023/08/25 17:25:17;;;;;;;10.7;6.8;;;;;;;27.66;63.65;;;;;
2023/08/25 17:35:17;;;;;;;10.7;6.8;;;;;;;27;64.9;;;;;
2023/08/25 17:45:18;;;;;;;9.1;6.2;;;;;;;26.39;66.15;;;;;
2023/08/25 17:56:17;;;;;;;9.1;6.2;;;;;;;25.81;68.18;;;;;
2023/08/25 18:06:18;;;;;;;9.1;6.2;;;;;;;25.55;69.21;;;;;
2023/08/25 18:17:18;;;;;;;10;7;;;;;;;25.25;69.49;;;;;
2023/08/25 18:28:17;;;;;;;10;7;;;;;;;24.91;70.35;;;;;
2023/08/25 18:39:18;;;;;;;10;7;;;;;;;24.71;70.47;;;;;
2023/08/25 18:50:18;;;;;;;14.2;6.9;;;;;;;24.42;70.78;;;;;
2023/08/25 19:01:18;;;;;;;14.2;6.9;;;;;;;24.37;70.6;;;;;
2023/08/25 19:12:17;;;;;;;12.7;6.5;;;;;;;24.23;70.68;;;;;
2023/08/25 19:22:18;;;;;;;12.7;6.5;;;;;;;24.13;70.88;;;;;
2023/08/25 19:33:18;;;;;;;12.7;6.5;;;;;;;24.21;70.02;;;;;
2023/08/25 19:44:18;;;;;;;8.9;5.7;;;;;;;24.25;69.47;;;;;
2023/08/25 19:54:18;;;;;;;8.9;5.7;;;;;;;24.2;69.7;;;;;
2023/08/25 20:05:18;;;;;;;8.9;5.7;;;;;;;24.17;69.59;;;;;
2023/08/25 20:15:18;;;;;;;8.6;5.1;;;;;;;24.15;68.97;;;;;
2023/08/25 20:26:18;;;;;;;8.6;5.1;;;;;;;24.16;69.19;;;;;
2023/08/25 20:36:18;;;;;;;8.6;5.1;;;;;;;24.09;69.22;;;;;
2023/08/25 20:47:17;;;;;;;8.2;5.1;;;;;;;24.11;68.63;;;;;
2023/08/25 20:57:18;;;;;;;8.2;5.1;;;;;;;24.13;68.45;;;;;
2023/08/25 21:08:18;;;;;;;8.2;5.1;;;;;;;24.09;68.69;;;;;
2023/08/25 21:18:18;;;;;;;10.7;4.8;;;;;;;23.91;69.17;;;;;
2023/08/25 21:29:18;;;;;;;10.7;4.8;;;;;;;23.59;70.05;;;;;
2023/08/25 21:40:18;;;;;;;10.7;4.8;;;;;;;23.26;71.22;;;;;
2023/08/25 21:51:18;;;;;;;7.6;5.3;;;;;;;22.93;74.24;;;;;
2023/08/25 22:01:18;;;;;;;7.6;5.3;;;;;;;22.68;74.53;;;;;
2023/08/25 22:12:18;;;;;;;9;5.9;;;;;;;22.68;74.23;;;;;
2023/08/25 22:22:18;;;;;;;9;5.9;;;;;;;22.77;74.13;;;;;
2023/08/25 22:32:18;;;;;;;9;5.9;;;;;;;22.77;74.2;;;;;
2023/08/25 22:43:18;;;;;;;8;4.9;;;;;;;22.83;73.85;;;;;
2023/08/25 22:53:18;;;;;;;8;4.9;;;;;;;22.8;74.56;;;;;
2023/08/25 23:03:18;;;;;;;8;4.9;;;;;;;22.78;75.16;;;;;
2023/08/25 23:14:18;;;;;;;8.4;4.9;;;;;;;22.73;76.23;;;;;
2023/08/25 23:24:18;;;;;;;8.4;4.9;;;;;;;22.9;75.3;;;;;
2023/08/25 23:35:18;;;;;;;8.4;4.9;;;;;;;22.88;76.1;;;;;
2023/08/25 23:45:18;;;;;;;8.7;5.7;;;;;;;22.69;76.32;;;;;
2023/08/25 23:56:18;;;;;;;8.7;5.7;;;;;;;22.61;76.11;;;;;
